CSH7396 RPLL-ZSFZ
Flight info
| Callsign | CSH7396 |
|---|---|
| Flight time | N/A |
| Altitude | 38000 |
| Route | OLIVA2A OLIVA W16 CIA W4 SANRO/N0458F370 M646 POTIB Q14 TNN W4 GUBAO/K0843S1160 DCT PONEN PON91A |
| Aircraft | B738/M-SDE2E3FGHIRWXY/LB1 |
Departure
| Time | 2026-04-30 13:49 |
|---|---|
| Airport | Ninoy Aquino International Airport (RPLL) |
Arrival
| Time | N/A |
|---|---|
| Airport | Fuzhou Changle International Airport (ZSFZ) |
| Time | Latitude | Longitude | Altitude | Speed | Heading |
|---|---|---|---|---|---|
| 2026-04-30 13:03 | 14.51575 | 121.01619 | 57 ft | 0 kts | 46° |
| 2026-04-30 13:20 | 14.51575 | 121.01618 | 57 ft | 0 kts | 46° |
| 2026-04-30 13:21 | 14.51565 | 121.01608 | 57 ft | 2 kts | 45° |
| 2026-04-30 13:21 | 14.51555 | 121.01597 | 57 ft | 2 kts | 46° |
| 2026-04-30 13:21 | 14.51544 | 121.01586 | 56 ft | 2 kts | 46° |
| 2026-04-30 13:22 | 14.51526 | 121.01562 | 56 ft | 2 kts | 71° |
| 2026-04-30 13:22 | 14.51523 | 121.01547 | 56 ft | 2 kts | 88° |
| 2026-04-30 13:22 | 14.51530 | 121.01517 | 55 ft | 2 kts | 122° |
| 2026-04-30 13:23 | 14.51536 | 121.01509 | 55 ft | 0 kts | 133° |
| 2026-04-30 13:23 | 14.51540 | 121.01505 | 55 ft | 0 kts | 135° |
| 2026-04-30 13:25 | 14.51531 | 121.01514 | 55 ft | 4 kts | 135° |
| 2026-04-30 13:26 | 14.51444 | 121.01605 | 57 ft | 10 kts | 135° |
| 2026-04-30 13:26 | 14.51314 | 121.01736 | 57 ft | 15 kts | 136° |
| 2026-04-30 13:27 | 14.51165 | 121.01890 | 56 ft | 7 kts | 136° |
| 2026-04-30 13:28 | 14.51117 | 121.01940 | 56 ft | 2 kts | 133° |
| 2026-04-30 13:28 | 14.51056 | 121.01991 | 56 ft | 5 kts | 184° |
| 2026-04-30 13:28 | 14.51026 | 121.01961 | 54 ft | 6 kts | 246° |
| 2026-04-30 13:29 | 14.51016 | 121.01942 | 54 ft | 0 kts | 239° |
| 2026-04-30 13:29 | 14.51012 | 121.01936 | 54 ft | 2 kts | 239° |
| 2026-04-30 13:30 | 14.50959 | 121.01844 | 52 ft | 5 kts | 240° |
| 2026-04-30 13:31 | 14.50917 | 121.01764 | 53 ft | 10 kts | 242° |
| 2026-04-30 13:31 | 14.50731 | 121.01433 | 50 ft | 11 kts | 242° |
| 2026-04-30 13:32 | 14.50653 | 121.01292 | 47 ft | 12 kts | 240° |
| 2026-04-30 13:32 | 14.50540 | 121.01086 | 42 ft | 22 kts | 241° |
| 2026-04-30 13:33 | 14.50343 | 121.00732 | 39 ft | 24 kts | 240° |
| 2026-04-30 13:33 | 14.50220 | 121.00510 | 37 ft | 14 kts | 240° |
| 2026-04-30 13:34 | 14.50178 | 121.00435 | 36 ft | 0 kts | 240° |
| 2026-04-30 13:34 | 14.50175 | 121.00432 | 36 ft | 0 kts | 240° |
| 2026-04-30 13:35 | 14.50171 | 121.00424 | 36 ft | 0 kts | 240° |
| 2026-04-30 13:38 | 14.50138 | 121.00364 | 36 ft | 10 kts | 240° |
| 2026-04-30 13:39 | 14.50015 | 121.00145 | 33 ft | 21 kts | 240° |
| 2026-04-30 13:39 | 14.49908 | 120.99965 | 30 ft | 6 kts | 210° |
| 2026-04-30 13:40 | 14.49881 | 120.99965 | 30 ft | 0 kts | 158° |
| 2026-04-30 13:46 | 14.49874 | 120.99967 | 30 ft | 2 kts | 158° |
| 2026-04-30 13:47 | 14.49847 | 120.99981 | 30 ft | 7 kts | 153° |
| 2026-04-30 13:47 | 14.49800 | 121.00037 | 31 ft | 12 kts | 85° |
| 2026-04-30 13:47 | 14.49835 | 121.00104 | 32 ft | 9 kts | 60° |
| 2026-04-30 13:47 | 14.49844 | 121.00120 | 32 ft | 0 kts | 61° |
| 2026-04-30 13:48 | 14.49858 | 121.00146 | 33 ft | 11 kts | 60° |
| 2026-04-30 13:48 | 14.49995 | 121.00391 | 34 ft | 75 kts | 60° |
| 2026-04-30 13:49 | 14.50367 | 121.01060 | 38 ft | 137 kts | 60° |
| 2026-04-30 13:49 | 14.50926 | 121.02068 | 142 ft | 176 kts | 61° |
| 2026-04-30 13:49 | 14.51554 | 121.03121 | 837 ft | 174 kts | 59° |
| 2026-04-30 13:49 | 14.52202 | 121.04156 | 1564 ft | 175 kts | 58° |
| 2026-04-30 13:50 | 14.52871 | 121.05241 | 2257 ft | 186 kts | 60° |
| 2026-04-30 13:50 | 14.54280 | 121.07621 | 3641 ft | 208 kts | 53° |
| 2026-04-30 13:50 | 14.55441 | 121.08566 | 4241 ft | 225 kts | 24° |
| 2026-04-30 13:51 | 14.57060 | 121.08753 | 4837 ft | 246 kts | 352° |
| 2026-04-30 13:51 | 14.58641 | 121.08067 | 5707 ft | 255 kts | 330° |
| 2026-04-30 13:51 | 14.60111 | 121.07028 | 6619 ft | 258 kts | 327° |
| 2026-04-30 13:51 | 14.61583 | 121.05941 | 7421 ft | 265 kts | 327° |
| 2026-04-30 13:52 | 14.63102 | 121.04820 | 8215 ft | 274 kts | 327° |
| 2026-04-30 13:52 | 14.64667 | 121.03669 | 8944 ft | 286 kts | 327° |
| 2026-04-30 13:52 | 14.66333 | 121.02453 | 9554 ft | 301 kts | 327° |
| 2026-04-30 13:52 | 14.68064 | 121.01197 | 10408 ft | 306 kts | 327° |
| 2026-04-30 13:53 | 14.69795 | 120.99804 | 10926 ft | 325 kts | 319° |
| 2026-04-30 13:53 | 14.71413 | 120.98108 | 11519 ft | 339 kts | 314° |
| 2026-04-30 13:53 | 14.73018 | 120.96249 | 12047 ft | 354 kts | 313° |
| 2026-04-30 13:53 | 14.74674 | 120.94326 | 12450 ft | 370 kts | 313° |
| 2026-04-30 13:54 | 14.76448 | 120.92323 | 13051 ft | 379 kts | 314° |
| 2026-04-30 13:54 | 14.78263 | 120.90327 | 13764 ft | 384 kts | 314° |
| 2026-04-30 13:54 | 14.80112 | 120.88321 | 14531 ft | 387 kts | 314° |
| 2026-04-30 13:54 | 14.81966 | 120.86318 | 15217 ft | 392 kts | 314° |
| 2026-04-30 13:55 | 14.83852 | 120.84282 | 15924 ft | 395 kts | 314° |
| 2026-04-30 13:55 | 14.85766 | 120.82213 | 16642 ft | 399 kts | 314° |
| 2026-04-30 13:55 | 14.87695 | 120.80125 | 17320 ft | 403 kts | 314° |
| 2026-04-30 13:55 | 14.89630 | 120.78031 | 18004 ft | 405 kts | 314° |
| 2026-04-30 13:56 | 14.91590 | 120.75908 | 18622 ft | 410 kts | 314° |
| 2026-04-30 13:56 | 14.93556 | 120.73824 | 19257 ft | 413 kts | 315° |
| 2026-04-30 13:56 | 14.95705 | 120.71793 | 19861 ft | 416 kts | 321° |
| 2026-04-30 13:56 | 14.98002 | 120.69989 | 20439 ft | 420 kts | 324° |
| 2026-04-30 13:57 | 15.00439 | 120.68272 | 21025 ft | 424 kts | 326° |
| 2026-04-30 13:57 | 15.02900 | 120.66622 | 21607 ft | 426 kts | 327° |
| 2026-04-30 13:57 | 15.05414 | 120.64963 | 22125 ft | 431 kts | 327° |
| 2026-04-30 13:57 | 15.07947 | 120.63290 | 22710 ft | 434 kts | 327° |
| 2026-04-30 13:58 | 15.10509 | 120.61590 | 23264 ft | 437 kts | 326° |
| 2026-04-30 13:58 | 15.15694 | 120.58206 | 24395 ft | 443 kts | 329° |
| 2026-04-30 13:58 | 15.18464 | 120.56767 | 24927 ft | 447 kts | 336° |
| 2026-04-30 13:59 | 15.21429 | 120.55756 | 25416 ft | 452 kts | 345° |
| 2026-04-30 13:59 | 15.24495 | 120.55106 | 25921 ft | 455 kts | 349° |
| 2026-04-30 13:59 | 15.27655 | 120.54631 | 26395 ft | 459 kts | 351° |
| 2026-04-30 13:59 | 15.30842 | 120.54237 | 26887 ft | 462 kts | 352° |
| 2026-04-30 14:00 | 15.34047 | 120.53870 | 27306 ft | 466 kts | 352° |
| 2026-04-30 14:00 | 15.40564 | 120.53118 | 28212 ft | 472 kts | 352° |
| 2026-04-30 14:00 | 15.43826 | 120.52726 | 28668 ft | 474 kts | 351° |
| 2026-04-30 14:01 | 15.47129 | 120.52319 | 29059 ft | 478 kts | 351° |
| 2026-04-30 14:01 | 15.50434 | 120.51904 | 29422 ft | 482 kts | 351° |
| 2026-04-30 14:01 | 15.53809 | 120.51476 | 29981 ft | 481 kts | 351° |
| 2026-04-30 14:01 | 15.57107 | 120.51056 | 30560 ft | 479 kts | 351° |
| 2026-04-30 14:02 | 15.60395 | 120.50633 | 31037 ft | 479 kts | 351° |
| 2026-04-30 14:02 | 15.63737 | 120.50202 | 31527 ft | 480 kts | 351° |
| 2026-04-30 14:02 | 15.67040 | 120.49775 | 32026 ft | 479 kts | 351° |
| 2026-04-30 14:02 | 15.70363 | 120.49344 | 32490 ft | 479 kts | 351° |
| 2026-04-30 14:03 | 15.73672 | 120.48912 | 33009 ft | 478 kts | 350° |
| 2026-04-30 14:03 | 15.76965 | 120.48481 | 33586 ft | 477 kts | 350° |
| 2026-04-30 14:03 | 15.80242 | 120.48051 | 34193 ft | 474 kts | 350° |
| 2026-04-30 14:03 | 15.83507 | 120.47623 | 34743 ft | 472 kts | 350° |
| 2026-04-30 14:04 | 15.86754 | 120.47195 | 35245 ft | 471 kts | 350° |
| 2026-04-30 14:04 | 15.90042 | 120.46763 | 35761 ft | 470 kts | 350° |
| 2026-04-30 14:04 | 15.93281 | 120.46335 | 36194 ft | 470 kts | 350° |
| 2026-04-30 14:04 | 15.96527 | 120.45906 | 36616 ft | 470 kts | 350° |
| 2026-04-30 14:05 | 15.99808 | 120.45473 | 37049 ft | 469 kts | 350° |
| 2026-04-30 14:05 | 16.03082 | 120.45042 | 37493 ft | 468 kts | 350° |
| 2026-04-30 14:05 | 16.06399 | 120.44606 | 37844 ft | 468 kts | 350° |
| 2026-04-30 14:05 | 16.09637 | 120.44179 | 37976 ft | 472 kts | 350° |
| 2026-04-30 14:06 | 16.19499 | 120.42876 | 37973 ft | 468 kts | 350° |
| 2026-04-30 14:07 | 16.29242 | 120.41592 | 37990 ft | 468 kts | 350° |
| 2026-04-30 14:08 | 16.38957 | 120.40308 | 38012 ft | 468 kts | 350° |
| 2026-04-30 14:08 | 16.48696 | 120.39021 | 38023 ft | 468 kts | 349° |
| 2026-04-30 14:09 | 16.55179 | 120.38163 | 38027 ft | 469 kts | 349° |
| 2026-04-30 14:10 | 16.64950 | 120.36867 | 38006 ft | 468 kts | 349° |
| 2026-04-30 14:10 | 16.71441 | 120.36101 | 38024 ft | 470 kts | 353° |
| 2026-04-30 14:11 | 16.78056 | 120.36182 | 38014 ft | 475 kts | 2° |
| 2026-04-30 14:11 | 16.84655 | 120.36932 | 38007 ft | 475 kts | 4° |
| 2026-04-30 14:12 | 16.91213 | 120.37811 | 38005 ft | 475 kts | 4° |
| 2026-04-30 14:12 | 16.97803 | 120.38668 | 38008 ft | 475 kts | 4° |
| 2026-04-30 14:13 | 17.04407 | 120.39482 | 37994 ft | 475 kts | 4° |
| 2026-04-30 14:13 | 17.10983 | 120.40269 | 38009 ft | 475 kts | 4° |
| 2026-04-30 14:14 | 17.17575 | 120.41050 | 38000 ft | 475 kts | 3° |
| 2026-04-30 14:14 | 17.24165 | 120.41827 | 38007 ft | 477 kts | 3° |
| 2026-04-30 14:15 | 17.30791 | 120.42608 | 37989 ft | 477 kts | 3° |
| 2026-04-30 14:15 | 17.37401 | 120.43385 | 38001 ft | 477 kts | 3° |
| 2026-04-30 14:16 | 17.44063 | 120.44170 | 38011 ft | 477 kts | 3° |
| 2026-04-30 14:16 | 17.50635 | 120.44944 | 38026 ft | 476 kts | 3° |
| 2026-04-30 14:17 | 17.57262 | 120.45725 | 38022 ft | 476 kts | 3° |
| 2026-04-30 14:17 | 17.63859 | 120.46503 | 38015 ft | 476 kts | 3° |
| 2026-04-30 14:18 | 17.70469 | 120.47283 | 38015 ft | 477 kts | 3° |
| 2026-04-30 14:18 | 17.80419 | 120.48463 | 37996 ft | 477 kts | 2° |
| 2026-04-30 14:19 | 17.90312 | 120.49636 | 37990 ft | 477 kts | 3° |
| 2026-04-30 14:20 | 17.96925 | 120.50422 | 37991 ft | 478 kts | 2° |
| 2026-04-30 14:20 | 18.06834 | 120.51590 | 37984 ft | 477 kts | 2° |
| 2026-04-30 14:21 | 18.13472 | 120.52378 | 37985 ft | 476 kts | 2° |
| 2026-04-30 14:22 | 18.23420 | 120.53461 | 37984 ft | 475 kts | 0° |
| 2026-04-30 14:22 | 18.33371 | 120.54208 | 37984 ft | 474 kts | 360° |
| 2026-04-30 14:23 | 18.46563 | 120.55212 | 37981 ft | 476 kts | 0° |
| 2026-04-30 14:24 | 18.56510 | 120.56003 | 37980 ft | 474 kts | 0° |
| 2026-04-30 14:25 | 18.69732 | 120.57061 | 37968 ft | 474 kts | 0° |
| 2026-04-30 14:26 | 18.79633 | 120.57858 | 37956 ft | 472 kts | 0° |
| 2026-04-30 14:27 | 18.89516 | 120.58655 | 37949 ft | 473 kts | 360° |
| 2026-04-30 14:27 | 18.96088 | 120.59184 | 37950 ft | 473 kts | 360° |
| 2026-04-30 14:28 | 19.06021 | 120.59982 | 37951 ft | 473 kts | 0° |
| 2026-04-30 14:28 | 19.12562 | 120.60510 | 37959 ft | 473 kts | 0° |
| 2026-04-30 14:29 | 19.24668 | 120.61488 | 37959 ft | 473 kts | 359° |
| 2026-04-30 14:31 | 19.42158 | 120.62908 | 37967 ft | 473 kts | 359° |
| 2026-04-30 14:31 | 19.52102 | 120.63711 | 37967 ft | 475 kts | 360° |
| 2026-04-30 14:32 | 19.61986 | 120.64519 | 37968 ft | 474 kts | 360° |
| 2026-04-30 14:33 | 19.68598 | 120.65056 | 37967 ft | 475 kts | 359° |
| 2026-04-30 14:33 | 19.78503 | 120.65861 | 37967 ft | 475 kts | 359° |
| 2026-04-30 14:34 | 19.85081 | 120.66396 | 37968 ft | 475 kts | 359° |
| 2026-04-30 14:34 | 19.91721 | 120.66936 | 37967 ft | 474 kts | 359° |
| 2026-04-30 14:35 | 20.01644 | 120.67746 | 37967 ft | 475 kts | 359° |
| 2026-04-30 14:36 | 20.08243 | 120.68285 | 37968 ft | 475 kts | 359° |
| 2026-04-30 14:36 | 20.14849 | 120.68827 | 37970 ft | 475 kts | 359° |
| 2026-04-30 14:37 | 20.21503 | 120.69370 | 37969 ft | 475 kts | 359° |
| 2026-04-30 14:37 | 20.28095 | 120.69910 | 37971 ft | 473 kts | 360° |
| 2026-04-30 14:38 | 20.34700 | 120.70453 | 37975 ft | 474 kts | 360° |
| 2026-04-30 14:38 | 20.41317 | 120.70996 | 37975 ft | 474 kts | 360° |
| 2026-04-30 14:39 | 20.47900 | 120.71540 | 37975 ft | 472 kts | 360° |
| 2026-04-30 14:39 | 20.54460 | 120.72083 | 37978 ft | 473 kts | 360° |
| 2026-04-30 14:40 | 20.64304 | 120.72893 | 37979 ft | 473 kts | 359° |
| 2026-04-30 14:40 | 20.70885 | 120.73431 | 37982 ft | 473 kts | 359° |
| 2026-04-30 14:41 | 20.77491 | 120.73973 | 37984 ft | 472 kts | 360° |
| 2026-04-30 14:41 | 20.80789 | 120.74245 | 38090 ft | 475 kts | 360° |
| 2026-04-30 14:41 | 20.84091 | 120.74517 | 38510 ft | 473 kts | 360° |
| 2026-04-30 14:42 | 20.87345 | 120.74786 | 38875 ft | 472 kts | 360° |
| 2026-04-30 14:42 | 20.90641 | 120.75060 | 39304 ft | 470 kts | 359° |
| 2026-04-30 14:42 | 20.93864 | 120.75328 | 39703 ft | 468 kts | 360° |
| 2026-04-30 14:42 | 20.97128 | 120.75523 | 39981 ft | 466 kts | 356° |
| 2026-04-30 14:43 | 21.03587 | 120.75034 | 39993 ft | 460 kts | 345° |
| 2026-04-30 14:43 | 21.09783 | 120.73607 | 39988 ft | 453 kts | 341° |
| 2026-04-30 14:44 | 21.15944 | 120.71936 | 39993 ft | 453 kts | 340° |
| 2026-04-30 14:44 | 21.22157 | 120.70262 | 39990 ft | 455 kts | 341° |
| 2026-04-30 14:45 | 21.28308 | 120.68654 | 39993 ft | 454 kts | 341° |
| 2026-04-30 14:45 | 21.34491 | 120.67063 | 40001 ft | 452 kts | 341° |
| 2026-04-30 14:46 | 21.40605 | 120.65498 | 39993 ft | 453 kts | 341° |
| 2026-04-30 14:46 | 21.45742 | 120.64178 | 39996 ft | 453 kts | 341° |
| 2026-04-30 14:47 | 21.52891 | 120.62346 | 40000 ft | 453 kts | 341° |
| 2026-04-30 14:47 | 21.59062 | 120.60760 | 39997 ft | 452 kts | 341° |
| 2026-04-30 14:48 | 21.65191 | 120.59184 | 39999 ft | 452 kts | 341° |
| 2026-04-30 14:48 | 21.71334 | 120.57602 | 39998 ft | 453 kts | 341° |
| 2026-04-30 14:49 | 21.77511 | 120.56010 | 39997 ft | 452 kts | 341° |
| 2026-04-30 14:49 | 21.83660 | 120.54430 | 40003 ft | 451 kts | 341° |
| 2026-04-30 14:50 | 21.92837 | 120.52063 | 39999 ft | 452 kts | 341° |
| 2026-04-30 14:51 | 22.02064 | 120.49678 | 40003 ft | 453 kts | 341° |
| 2026-04-30 14:52 | 22.11266 | 120.47302 | 40011 ft | 451 kts | 341° |
| 2026-04-30 14:52 | 22.20456 | 120.44923 | 40017 ft | 451 kts | 341° |
| 2026-04-30 14:53 | 22.29620 | 120.42548 | 40007 ft | 450 kts | 341° |
| 2026-04-30 14:54 | 22.41832 | 120.39378 | 40021 ft | 450 kts | 341° |
| 2026-04-30 14:55 | 22.50963 | 120.37004 | 40024 ft | 449 kts | 341° |
| 2026-04-30 14:56 | 22.63198 | 120.33820 | 40019 ft | 449 kts | 340° |
| 2026-04-30 14:57 | 22.72302 | 120.31448 | 40019 ft | 446 kts | 340° |
| 2026-04-30 14:58 | 22.84392 | 120.28287 | 40034 ft | 447 kts | 340° |
| 2026-04-30 14:58 | 22.93534 | 120.25890 | 40029 ft | 447 kts | 340° |
| 2026-04-30 15:00 | 23.08625 | 120.21953 | 40039 ft | 447 kts | 341° |
| 2026-04-30 15:00 | 23.14941 | 120.21375 | 40034 ft | 462 kts | 1° |
| 2026-04-30 15:01 | 23.21247 | 120.23107 | 40032 ft | 473 kts | 12° |
| 2026-04-30 15:01 | 23.30609 | 120.26611 | 40035 ft | 473 kts | 14° |
| 2026-04-30 15:02 | 23.36859 | 120.28982 | 40032 ft | 472 kts | 13° |
| 2026-04-30 15:03 | 23.52462 | 120.34739 | 39513 ft | 467 kts | 13° |
| 2026-04-30 15:04 | 23.58562 | 120.36972 | 38482 ft | 459 kts | 13° |
| 2026-04-30 15:04 | 23.67519 | 120.40236 | 36915 ft | 449 kts | 13° |
| 2026-04-30 15:05 | 23.76426 | 120.43473 | 35353 ft | 448 kts | 13° |
| 2026-04-30 15:06 | 23.82345 | 120.45622 | 34324 ft | 452 kts | 13° |
| 2026-04-30 15:06 | 23.88345 | 120.47804 | 33299 ft | 454 kts | 12° |
| 2026-04-30 15:07 | 23.94342 | 120.49997 | 32326 ft | 454 kts | 13° |
| 2026-04-30 15:07 | 24.00313 | 120.52194 | 31386 ft | 456 kts | 13° |
| 2026-04-30 15:08 | 24.06384 | 120.54429 | 30435 ft | 458 kts | 13° |
| 2026-04-30 15:08 | 24.15440 | 120.57431 | 30046 ft | 452 kts | 5° |
| 2026-04-30 15:09 | 24.21671 | 120.57627 | 30059 ft | 448 kts | 350° |
| 2026-04-30 15:10 | 24.33970 | 120.56027 | 30066 ft | 443 kts | 347° |
| 2026-04-30 15:11 | 24.52406 | 120.53648 | 30040 ft | 445 kts | 348° |
| 2026-04-30 15:12 | 24.61687 | 120.52502 | 28629 ft | 445 kts | 348° |
| 2026-04-30 15:13 | 24.67830 | 120.51749 | 27361 ft | 440 kts | 349° |
| 2026-04-30 15:14 | 24.79982 | 120.50251 | 24847 ft | 443 kts | 349° |
| 2026-04-30 15:14 | 24.89115 | 120.49129 | 22994 ft | 433 kts | 349° |
| 2026-04-30 15:16 | 25.03687 | 120.47336 | 20194 ft | 406 kts | 348° |
| 2026-04-30 15:17 | 25.14787 | 120.45947 | 20078 ft | 413 kts | 348° |
| 2026-04-30 15:18 | 25.29040 | 120.44177 | 19636 ft | 414 kts | 348° |
| 2026-04-30 15:19 | 25.37508 | 120.43132 | 18592 ft | 399 kts | 348° |